<?xml version="1.0" encoding="UTF-8" ?>
<gpx version="1.1" xmlns:xsi="http://www.w3.org/2001/XMLSchema-instance" 
    xmlns="http://www.topografix.com/GPX/1/1"
    xsi:schemaLocation="http://www.topografix.com/GPX/1/1 http://www.topografix.com/GPX/1/1/gpx.xsd" 
    creator="Openrunner - https://www.openrunner.com" >	<trk>
	                   <name>Parcours pédestre Découverte de Saint-Vincent-23433012</name>
						<trkseg>
					<trkpt lat="45.646880" lon="4.673030">
						<ele>486</ele>
						<time>2026-02-25T08:55:03Z</time>
					</trkpt>
					<trkpt lat="45.646580" lon="4.672890">
						<ele>488</ele>
						<time>2026-02-25T08:55:45Z</time>
					</trkpt>
					<trkpt lat="45.646610" lon="4.673030">
						<ele>488</ele>
						<time>2026-02-25T08:55:59Z</time>
					</trkpt>
					<trkpt lat="45.646690" lon="4.673230">
						<ele>487</ele>
						<time>2026-02-25T08:56:20Z</time>
					</trkpt>
					<trkpt lat="45.646870" lon="4.673470">
						<ele>485</ele>
						<time>2026-02-25T08:56:53Z</time>
					</trkpt>
					<trkpt lat="45.646910" lon="4.673570">
						<ele>485</ele>
						<time>2026-02-25T08:57:04Z</time>
					</trkpt>
					<trkpt lat="45.646930" lon="4.673670">
						<ele>484</ele>
						<time>2026-02-25T08:57:14Z</time>
					</trkpt>
					<trkpt lat="45.646980" lon="4.673960">
						<ele>483</ele>
						<time>2026-02-25T08:57:41Z</time>
					</trkpt>
					<trkpt lat="45.646980" lon="4.674090">
						<ele>483</ele>
						<time>2026-02-25T08:57:54Z</time>
					</trkpt>
					<trkpt lat="45.646990" lon="4.674220">
						<ele>482</ele>
						<time>2026-02-25T08:58:06Z</time>
					</trkpt>
					<trkpt lat="45.646980" lon="4.674270">
						<ele>482</ele>
						<time>2026-02-25T08:58:11Z</time>
					</trkpt>
					<trkpt lat="45.646960" lon="4.674330">
						<ele>481</ele>
						<time>2026-02-25T08:58:17Z</time>
					</trkpt>
					<trkpt lat="45.646970" lon="4.674450">
						<ele>481</ele>
						<time>2026-02-25T08:58:28Z</time>
					</trkpt>
					<trkpt lat="45.647030" lon="4.674600">
						<ele>479</ele>
						<time>2026-02-25T08:58:44Z</time>
					</trkpt>
					<trkpt lat="45.647060" lon="4.674690">
						<ele>478</ele>
						<time>2026-02-25T08:58:53Z</time>
					</trkpt>
					<trkpt lat="45.647050" lon="4.674790">
						<ele>478</ele>
						<time>2026-02-25T08:59:03Z</time>
					</trkpt>
					<trkpt lat="45.647040" lon="4.674840">
						<ele>477</ele>
						<time>2026-02-25T08:59:08Z</time>
					</trkpt>
					<trkpt lat="45.647040" lon="4.674860">
						<ele>477</ele>
						<time>2026-02-25T08:59:10Z</time>
					</trkpt>
					<trkpt lat="45.646970" lon="4.674860">
						<ele>478</ele>
						<time>2026-02-25T08:59:19Z</time>
					</trkpt>
					<trkpt lat="45.646970" lon="4.674880">
						<ele>477</ele>
						<time>2026-02-25T08:59:21Z</time>
					</trkpt>
					<trkpt lat="45.646980" lon="4.674970">
						<ele>477</ele>
						<time>2026-02-25T08:59:29Z</time>
					</trkpt>
					<trkpt lat="45.646940" lon="4.674980">
						<ele>477</ele>
						<time>2026-02-25T08:59:35Z</time>
					</trkpt>
					<trkpt lat="45.647000" lon="4.675240">
						<ele>474</ele>
						<time>2026-02-25T09:00:00Z</time>
					</trkpt>
					<trkpt lat="45.647000" lon="4.675290">
						<ele>473</ele>
						<time>2026-02-25T09:00:05Z</time>
					</trkpt>
					<trkpt lat="45.647060" lon="4.675310">
						<ele>473</ele>
						<time>2026-02-25T09:00:13Z</time>
					</trkpt>
					<trkpt lat="45.647080" lon="4.675350">
						<ele>472</ele>
						<time>2026-02-25T09:00:18Z</time>
					</trkpt>
					<trkpt lat="45.647090" lon="4.675360">
						<ele>472</ele>
						<time>2026-02-25T09:00:19Z</time>
					</trkpt>
					<trkpt lat="45.647120" lon="4.675370">
						<ele>472</ele>
						<time>2026-02-25T09:00:24Z</time>
					</trkpt>
					<trkpt lat="45.647400" lon="4.675360">
						<ele>471</ele>
						<time>2026-02-25T09:01:01Z</time>
					</trkpt>
					<trkpt lat="45.647900" lon="4.675330">
						<ele>469</ele>
						<time>2026-02-25T09:02:08Z</time>
					</trkpt>
					<trkpt lat="45.648310" lon="4.675280">
						<ele>466</ele>
						<time>2026-02-25T09:03:03Z</time>
					</trkpt>
					<trkpt lat="45.648410" lon="4.675240">
						<ele>466</ele>
						<time>2026-02-25T09:03:16Z</time>
					</trkpt>
					<trkpt lat="45.648470" lon="4.675140">
						<ele>467</ele>
						<time>2026-02-25T09:03:29Z</time>
					</trkpt>
					<trkpt lat="45.648480" lon="4.675240">
						<ele>466</ele>
						<time>2026-02-25T09:03:38Z</time>
					</trkpt>
					<trkpt lat="45.648510" lon="4.675850">
						<ele>462</ele>
						<time>2026-02-25T09:04:35Z</time>
					</trkpt>
					<trkpt lat="45.648590" lon="4.676540">
						<ele>455</ele>
						<time>2026-02-25T09:05:40Z</time>
					</trkpt>
					<trkpt lat="45.648560" lon="4.676620">
						<ele>454</ele>
						<time>2026-02-25T09:05:49Z</time>
					</trkpt>
					<trkpt lat="45.648540" lon="4.676680">
						<ele>454</ele>
						<time>2026-02-25T09:05:55Z</time>
					</trkpt>
					<trkpt lat="45.648020" lon="4.676950">
						<ele>452</ele>
						<time>2026-02-25T09:07:09Z</time>
					</trkpt>
					<trkpt lat="45.647510" lon="4.676960">
						<ele>451</ele>
						<time>2026-02-25T09:08:17Z</time>
					</trkpt>
					<trkpt lat="45.647320" lon="4.677000">
						<ele>450</ele>
						<time>2026-02-25T09:08:43Z</time>
					</trkpt>
					<trkpt lat="45.647210" lon="4.677070">
						<ele>448</ele>
						<time>2026-02-25T09:08:59Z</time>
					</trkpt>
					<trkpt lat="45.647090" lon="4.677190">
						<ele>445</ele>
						<time>2026-02-25T09:09:18Z</time>
					</trkpt>
					<trkpt lat="45.647000" lon="4.677390">
						<ele>441</ele>
						<time>2026-02-25T09:09:40Z</time>
					</trkpt>
					<trkpt lat="45.647010" lon="4.677400">
						<ele>441</ele>
						<time>2026-02-25T09:09:42Z</time>
					</trkpt>
					<trkpt lat="45.647000" lon="4.677390">
						<ele>441</ele>
						<time>2026-02-25T09:09:44Z</time>
					</trkpt>
					<trkpt lat="45.646830" lon="4.677880">
						<ele>434</ele>
						<time>2026-02-25T09:10:35Z</time>
					</trkpt>
					<trkpt lat="45.646550" lon="4.678750">
						<ele>425</ele>
						<time>2026-02-25T09:12:04Z</time>
					</trkpt>
					<trkpt lat="45.646350" lon="4.679480">
						<ele>421</ele>
						<time>2026-02-25T09:13:17Z</time>
					</trkpt>
					<trkpt lat="45.646390" lon="4.679490">
						<ele>421</ele>
						<time>2026-02-25T09:13:23Z</time>
					</trkpt>
					<trkpt lat="45.646350" lon="4.679480">
						<ele>421</ele>
						<time>2026-02-25T09:13:28Z</time>
					</trkpt>
					<trkpt lat="45.646220" lon="4.679400">
						<ele>420</ele>
						<time>2026-02-25T09:13:47Z</time>
					</trkpt>
					<trkpt lat="45.645890" lon="4.679130">
						<ele>420</ele>
						<time>2026-02-25T09:14:38Z</time>
					</trkpt>
					<trkpt lat="45.645720" lon="4.679040">
						<ele>420</ele>
						<time>2026-02-25T09:15:02Z</time>
					</trkpt>
					<trkpt lat="45.645560" lon="4.678980">
						<ele>420</ele>
						<time>2026-02-25T09:15:24Z</time>
					</trkpt>
					<trkpt lat="45.645460" lon="4.678980">
						<ele>420</ele>
						<time>2026-02-25T09:15:37Z</time>
					</trkpt>
					<trkpt lat="45.645280" lon="4.678980">
						<ele>419</ele>
						<time>2026-02-25T09:16:01Z</time>
					</trkpt>
					<trkpt lat="45.644840" lon="4.678970">
						<ele>419</ele>
						<time>2026-02-25T09:17:00Z</time>
					</trkpt>
					<trkpt lat="45.644690" lon="4.678920">
						<ele>419</ele>
						<time>2026-02-25T09:17:21Z</time>
					</trkpt>
					<trkpt lat="45.644710" lon="4.678870">
						<ele>419</ele>
						<time>2026-02-25T09:17:26Z</time>
					</trkpt>
					<trkpt lat="45.644690" lon="4.678920">
						<ele>419</ele>
						<time>2026-02-25T09:17:31Z</time>
					</trkpt>
					<trkpt lat="45.644620" lon="4.678850">
						<ele>419</ele>
						<time>2026-02-25T09:17:43Z</time>
					</trkpt>
					<trkpt lat="45.644200" lon="4.678710">
						<ele>418</ele>
						<time>2026-02-25T09:18:40Z</time>
					</trkpt>
					<trkpt lat="45.643880" lon="4.678600">
						<ele>419</ele>
						<time>2026-02-25T09:19:24Z</time>
					</trkpt>
					<trkpt lat="45.643430" lon="4.678430">
						<ele>420</ele>
						<time>2026-02-25T09:20:26Z</time>
					</trkpt>
					<trkpt lat="45.643350" lon="4.678400">
						<ele>421</ele>
						<time>2026-02-25T09:20:37Z</time>
					</trkpt>
					<trkpt lat="45.642930" lon="4.678280">
						<ele>421</ele>
						<time>2026-02-25T09:21:34Z</time>
					</trkpt>
					<trkpt lat="45.642900" lon="4.678270">
						<ele>421</ele>
						<time>2026-02-25T09:21:39Z</time>
					</trkpt>
					<trkpt lat="45.642990" lon="4.677980">
						<ele>424</ele>
						<time>2026-02-25T09:22:08Z</time>
					</trkpt>
					<trkpt lat="45.643080" lon="4.677700">
						<ele>426</ele>
						<time>2026-02-25T09:22:37Z</time>
					</trkpt>
					<trkpt lat="45.643320" lon="4.677040">
						<ele>431</ele>
						<time>2026-02-25T09:23:46Z</time>
					</trkpt>
					<trkpt lat="45.643390" lon="4.676890">
						<ele>433</ele>
						<time>2026-02-25T09:24:03Z</time>
					</trkpt>
					<trkpt lat="45.643440" lon="4.676810">
						<ele>434</ele>
						<time>2026-02-25T09:24:13Z</time>
					</trkpt>
					<trkpt lat="45.643620" lon="4.676530">
						<ele>438</ele>
						<time>2026-02-25T09:24:49Z</time>
					</trkpt>
					<trkpt lat="45.643720" lon="4.676410">
						<ele>439</ele>
						<time>2026-02-25T09:25:06Z</time>
					</trkpt>
					<trkpt lat="45.643750" lon="4.676400">
						<ele>440</ele>
						<time>2026-02-25T09:25:10Z</time>
					</trkpt>
					<trkpt lat="45.643770" lon="4.676390">
						<ele>440</ele>
						<time>2026-02-25T09:25:13Z</time>
					</trkpt>
					<trkpt lat="45.643940" lon="4.676400">
						<ele>440</ele>
						<time>2026-02-25T09:25:36Z</time>
					</trkpt>
					<trkpt lat="45.644010" lon="4.676390">
						<ele>440</ele>
						<time>2026-02-25T09:25:45Z</time>
					</trkpt>
					<trkpt lat="45.644070" lon="4.676360">
						<ele>441</ele>
						<time>2026-02-25T09:25:54Z</time>
					</trkpt>
					<trkpt lat="45.644310" lon="4.676080">
						<ele>444</ele>
						<time>2026-02-25T09:26:35Z</time>
					</trkpt>
					<trkpt lat="45.644520" lon="4.675890">
						<ele>446</ele>
						<time>2026-02-25T09:27:08Z</time>
					</trkpt>
					<trkpt lat="45.644510" lon="4.675830">
						<ele>447</ele>
						<time>2026-02-25T09:27:14Z</time>
					</trkpt>
					<trkpt lat="45.644520" lon="4.675790">
						<ele>448</ele>
						<time>2026-02-25T09:27:18Z</time>
					</trkpt>
					<trkpt lat="45.644530" lon="4.675770">
						<ele>448</ele>
						<time>2026-02-25T09:27:20Z</time>
					</trkpt>
					<trkpt lat="45.644620" lon="4.675690">
						<ele>449</ele>
						<time>2026-02-25T09:27:34Z</time>
					</trkpt>
					<trkpt lat="45.644810" lon="4.675610">
						<ele>450</ele>
						<time>2026-02-25T09:28:01Z</time>
					</trkpt>
					<trkpt lat="45.644850" lon="4.675560">
						<ele>451</ele>
						<time>2026-02-25T09:28:08Z</time>
					</trkpt>
					<trkpt lat="45.644890" lon="4.675450">
						<ele>452</ele>
						<time>2026-02-25T09:28:19Z</time>
					</trkpt>
					<trkpt lat="45.644940" lon="4.675280">
						<ele>455</ele>
						<time>2026-02-25T09:28:37Z</time>
					</trkpt>
					<trkpt lat="45.645000" lon="4.675150">
						<ele>457</ele>
						<time>2026-02-25T09:28:51Z</time>
					</trkpt>
					<trkpt lat="45.645020" lon="4.675070">
						<ele>458</ele>
						<time>2026-02-25T09:28:59Z</time>
					</trkpt>
					<trkpt lat="45.645030" lon="4.675020">
						<ele>459</ele>
						<time>2026-02-25T09:29:04Z</time>
					</trkpt>
					<trkpt lat="45.645070" lon="4.674970">
						<ele>460</ele>
						<time>2026-02-25T09:29:11Z</time>
					</trkpt>
					<trkpt lat="45.645110" lon="4.674780">
						<ele>462</ele>
						<time>2026-02-25T09:29:29Z</time>
					</trkpt>
					<trkpt lat="45.645150" lon="4.674780">
						<ele>463</ele>
						<time>2026-02-25T09:29:35Z</time>
					</trkpt>
					<trkpt lat="45.645200" lon="4.674780">
						<ele>463</ele>
						<time>2026-02-25T09:29:41Z</time>
					</trkpt>
					<trkpt lat="45.645480" lon="4.674830">
						<ele>465</ele>
						<time>2026-02-25T09:30:19Z</time>
					</trkpt>
					<trkpt lat="45.645480" lon="4.674860">
						<ele>465</ele>
						<time>2026-02-25T09:30:22Z</time>
					</trkpt>
					<trkpt lat="45.645480" lon="4.674830">
						<ele>465</ele>
						<time>2026-02-25T09:30:25Z</time>
					</trkpt>
					<trkpt lat="45.645550" lon="4.674530">
						<ele>469</ele>
						<time>2026-02-25T09:30:54Z</time>
					</trkpt>
					<trkpt lat="45.645720" lon="4.674140">
						<ele>474</ele>
						<time>2026-02-25T09:31:37Z</time>
					</trkpt>
					<trkpt lat="45.645770" lon="4.674000">
						<ele>476</ele>
						<time>2026-02-25T09:31:52Z</time>
					</trkpt>
					<trkpt lat="45.646000" lon="4.673350">
						<ele>484</ele>
						<time>2026-02-25T09:33:00Z</time>
					</trkpt>
					<trkpt lat="45.646050" lon="4.673170">
						<ele>485</ele>
						<time>2026-02-25T09:33:18Z</time>
					</trkpt>
					<trkpt lat="45.646300" lon="4.672380">
						<ele>489</ele>
						<time>2026-02-25T09:34:39Z</time>
					</trkpt>
					<trkpt lat="45.646460" lon="4.672060">
						<ele>490</ele>
						<time>2026-02-25T09:35:15Z</time>
					</trkpt>
					<trkpt lat="45.646470" lon="4.672140">
						<ele>490</ele>
						<time>2026-02-25T09:35:23Z</time>
					</trkpt>
					<trkpt lat="45.646490" lon="4.672210">
						<ele>490</ele>
						<time>2026-02-25T09:35:30Z</time>
					</trkpt>
					<trkpt lat="45.646510" lon="4.672870">
						<ele>488</ele>
						<time>2026-02-25T09:36:32Z</time>
					</trkpt>
					<trkpt lat="45.646580" lon="4.672890">
						<ele>488</ele>
						<time>2026-02-25T09:36:41Z</time>
					</trkpt>
					<trkpt lat="45.646880" lon="4.673030">
						<ele>486</ele>
						<time>2026-02-25T09:37:23Z</time>
					</trkpt>
					</trkseg>
				</trk>
			</gpx>